sensor_id;sensor_type;location;lat;lon;timestamp;pressure;altitude;pressure_sealevel;temperature
18704;BMP180;9481;48.796;9.210;2022-11-15T00:01:56;96348.00;;;16.00
18704;BMP180;9481;48.796;9.210;2022-11-15T00:04:22;96345.00;;;16.00
18704;BMP180;9481;48.796;9.210;2022-11-15T00:06:48;96342.00;;;16.00
18704;BMP180;9481;48.796;9.210;2022-11-15T00:09:13;96344.00;;;16.00
18704;BMP180;9481;48.796;9.210;2022-11-15T00:11:40;96337.00;;;16.00
18704;BMP180;9481;48.796;9.210;2022-11-15T00:14:05;96340.00;;;16.00
18704;BMP180;9481;48.796;9.210;2022-11-15T00:16:31;96343.00;;;16.00
18704;BMP180;9481;48.796;9.210;2022-11-15T00:18:57;96342.00;;;16.00
18704;BMP180;9481;48.796;9.210;2022-11-15T00:21:23;96340.00;;;16.00
18704;BMP180;9481;48.796;9.210;2022-11-15T00:23:48;96334.00;;;16.00
18704;BMP180;9481;48.796;9.210;2022-11-15T00:26:15;96339.00;;;16.00
18704;BMP180;9481;48.796;9.210;2022-11-15T00:28:41;96339.00;;;16.00
18704;BMP180;9481;48.796;9.210;2022-11-15T00:31:12;96330.00;;;16.00
18704;BMP180;9481;48.796;9.210;2022-11-15T00:33:38;96320.00;;;16.00
18704;BMP180;9481;48.796;9.210;2022-11-15T00:36:07;96315.00;;;16.00
18704;BMP180;9481;48.796;9.210;2022-11-15T00:38:36;96316.00;;;16.00
18704;BMP180;9481;48.796;9.210;2022-11-15T00:41:04;96322.00;;;16.00
18704;BMP180;9481;48.796;9.210;2022-11-15T00:43:31;96321.00;;;16.00
18704;BMP180;9481;48.796;9.210;2022-11-15T00:45:57;96318.00;;;16.00
18704;BMP180;9481;48.796;9.210;2022-11-15T00:48:23;96315.00;;;16.00
18704;BMP180;9481;48.796;9.210;2022-11-15T00:50:49;96321.00;;;16.00
18704;BMP180;9481;48.796;9.210;2022-11-15T00:53:16;96314.00;;;16.00
18704;BMP180;9481;48.796;9.210;2022-11-15T00:55:43;96311.00;;;16.00
18704;BMP180;9481;48.796;9.210;2022-11-15T00:58:09;96306.00;;;16.00
18704;BMP180;9481;48.796;9.210;2022-11-15T01:00:35;96303.00;;;16.00
18704;BMP180;9481;48.796;9.210;2022-11-15T01:03:01;96301.00;;;16.00
18704;BMP180;9481;48.796;9.210;2022-11-15T01:05:27;96296.00;;;16.00
18704;BMP180;9481;48.796;9.210;2022-11-15T01:07:55;96306.00;;;16.00
18704;BMP180;9481;48.796;9.210;2022-11-15T01:10:24;96300.00;;;16.00
18704;BMP180;9481;48.796;9.210;2022-11-15T01:12:51;96296.00;;;16.00
18704;BMP180;9481;48.796;9.210;2022-11-15T01:15:17;96293.00;;;16.00
18704;BMP180;9481;48.796;9.210;2022-11-15T01:17:43;96297.00;;;15.90
18704;BMP180;9481;48.796;9.210;2022-11-15T01:20:09;96290.00;;;15.90
18704;BMP180;9481;48.796;9.210;2022-11-15T01:22:35;96280.00;;;15.90
18704;BMP180;9481;48.796;9.210;2022-11-15T01:25:00;96290.00;;;15.90
18704;BMP180;9481;48.796;9.210;2022-11-15T01:27:26;96287.00;;;15.90
18704;BMP180;9481;48.796;9.210;2022-11-15T01:29:52;96282.00;;;15.90
18704;BMP180;9481;48.796;9.210;2022-11-15T01:32:18;96280.00;;;15.90
18704;BMP180;9481;48.796;9.210;2022-11-15T01:34:43;96282.00;;;15.90
18704;BMP180;9481;48.796;9.210;2022-11-15T01:37:09;96290.00;;;15.90
18704;BMP180;9481;48.796;9.210;2022-11-15T01:39:35;96287.00;;;15.80
18704;BMP180;9481;48.796;9.210;2022-11-15T01:42:01;96283.00;;;15.80
18704;BMP180;9481;48.796;9.210;2022-11-15T01:44:49;96281.00;;;15.80
18704;BMP180;9481;48.796;9.210;2022-11-15T01:47:37;96279.00;;;15.70
18704;BMP180;9481;48.796;9.210;2022-11-15T01:50:12;96280.00;;;15.70
18704;BMP180;9481;48.796;9.210;2022-11-15T01:52:40;96275.00;;;15.70
18704;BMP180;9481;48.796;9.210;2022-11-15T01:55:24;96273.00;;;15.60
18704;BMP180;9481;48.796;9.210;2022-11-15T01:57:54;96277.00;;;15.60
18704;BMP180;9481;48.796;9.210;2022-11-15T02:00:21;96274.00;;;15.60
18704;BMP180;9481;48.796;9.210;2022-11-15T02:02:47;96272.00;;;15.60
18704;BMP180;9481;48.796;9.210;2022-11-15T02:05:13;96273.00;;;15.50
18704;BMP180;9481;48.796;9.210;2022-11-15T02:07:39;96272.00;;;15.50
18704;BMP180;9481;48.796;9.210;2022-11-15T02:10:21;96255.00;;;15.40
18704;BMP180;9481;48.796;9.210;2022-11-15T02:12:48;96256.00;;;15.40
18704;BMP180;9481;48.796;9.210;2022-11-15T02:15:14;96259.00;;;15.40
18704;BMP180;9481;48.796;9.210;2022-11-15T02:17:53;96254.00;;;15.40
18704;BMP180;9481;48.796;9.210;2022-11-15T02:26:40;96248.00;;;15.20
18704;BMP180;9481;48.796;9.210;2022-11-15T02:29:27;96245.00;;;15.20
18704;BMP180;9481;48.796;9.210;2022-11-15T02:32:15;96235.00;;;15.20
18704;BMP180;9481;48.796;9.210;2022-11-15T02:35:06;96242.00;;;15.20
18704;BMP180;9481;48.796;9.210;2022-11-15T02:38:08;96238.00;;;15.10
18704;BMP180;9481;48.796;9.210;2022-11-15T02:40:57;96228.00;;;15.10
18704;BMP180;9481;48.796;9.210;2022-11-15T02:43:35;96234.00;;;15.10
18704;BMP180;9481;48.796;9.210;2022-11-15T02:46:43;96236.00;;;15.00
18704;BMP180;9481;48.796;9.210;2022-11-15T02:49:33;96219.00;;;15.10
18704;BMP180;9481;48.796;9.210;2022-11-15T02:52:00;96208.00;;;15.10
18704;BMP180;9481;48.796;9.210;2022-11-15T02:54:31;96210.00;;;15.10
18704;BMP180;9481;48.796;9.210;2022-11-15T02:57:12;96211.00;;;15.10
18704;BMP180;9481;48.796;9.210;2022-11-15T03:05:41;96212.00;;;15.10
18704;BMP180;9481;48.796;9.210;2022-11-15T03:11:13;96200.00;;;15.10
18704;BMP180;9481;48.796;9.210;2022-11-15T03:16:40;96199.00;;;15.00
18704;BMP180;9481;48.796;9.210;2022-11-15T03:21:34;96183.00;;;15.10
18704;BMP180;9481;48.796;9.210;2022-11-15T03:24:06;96184.00;;;15.10
18704;BMP180;9481;48.796;9.210;2022-11-15T03:26:36;96185.00;;;15.10
18704;BMP180;9481;48.796;9.210;2022-11-15T03:29:17;96183.00;;;15.00
18704;BMP180;9481;48.796;9.210;2022-11-15T03:31:54;96184.00;;;15.00
18704;BMP180;9481;48.796;9.210;2022-11-15T03:34:49;96179.00;;;15.00
18704;BMP180;9481;48.796;9.210;2022-11-15T03:37:21;96185.00;;;15.00
18704;BMP180;9481;48.796;9.210;2022-11-15T03:39:47;96178.00;;;15.00
18704;BMP180;9481;48.796;9.210;2022-11-15T03:42:20;96186.00;;;15.00
18704;BMP180;9481;48.796;9.210;2022-11-15T03:44:50;96168.00;;;15.00
18704;BMP180;9481;48.796;9.210;2022-11-15T03:47:36;96165.00;;;15.00
18704;BMP180;9481;48.796;9.210;2022-11-15T03:50:18;96171.00;;;15.00
18704;BMP180;9481;48.796;9.210;2022-11-15T03:52:47;96173.00;;;15.00
18704;BMP180;9481;48.796;9.210;2022-11-15T03:55:18;96158.00;;;15.00
18704;BMP180;9481;48.796;9.210;2022-11-15T03:57:46;96166.00;;;15.00
18704;BMP180;9481;48.796;9.210;2022-11-15T04:00:13;96158.00;;;15.00
18704;BMP180;9481;48.796;9.210;2022-11-15T04:02:38;96166.00;;;15.00
18704;BMP180;9481;48.796;9.210;2022-11-15T04:05:04;96168.00;;;15.00
18704;BMP180;9481;48.796;9.210;2022-11-15T04:07:30;96168.00;;;15.00
18704;BMP180;9481;48.796;9.210;2022-11-15T04:09:56;96158.00;;;14.90
18704;BMP180;9481;48.796;9.210;2022-11-15T04:12:36;96169.00;;;14.90
18704;BMP180;9481;48.796;9.210;2022-11-15T04:17:50;96163.00;;;14.90
18704;BMP180;9481;48.796;9.210;2022-11-15T04:20:21;96171.00;;;14.90
18704;BMP180;9481;48.796;9.210;2022-11-15T04:23:11;96161.00;;;14.90
18704;BMP180;9481;48.796;9.210;2022-11-15T04:26:02;96161.00;;;14.90
18704;BMP180;9481;48.796;9.210;2022-11-15T04:28:28;96163.00;;;14.90
18704;BMP180;9481;48.796;9.210;2022-11-15T04:30:54;96165.00;;;14.90
18704;BMP180;9481;48.796;9.210;2022-11-15T04:33:20;96165.00;;;14.90
18704;BMP180;9481;48.796;9.210;2022-11-15T04:35:46;96163.00;;;14.90
18704;BMP180;9481;48.796;9.210;2022-11-15T04:38:32;96156.00;;;14.90
18704;BMP180;9481;48.796;9.210;2022-11-15T04:40:58;96156.00;;;14.80
18704;BMP180;9481;48.796;9.210;2022-11-15T04:43:23;96149.00;;;14.90
18704;BMP180;9481;48.796;9.210;2022-11-15T04:45:49;96152.00;;;14.80
18704;BMP180;9481;48.796;9.210;2022-11-15T04:48:15;96147.00;;;14.80
18704;BMP180;9481;48.796;9.210;2022-11-15T04:50:41;96152.00;;;14.80
18704;BMP180;9481;48.796;9.210;2022-11-15T04:53:06;96144.00;;;14.80
18704;BMP180;9481;48.796;9.210;2022-11-15T04:55:32;96149.00;;;14.80
18704;BMP180;9481;48.796;9.210;2022-11-15T04:58:02;96145.00;;;14.80
18704;BMP180;9481;48.796;9.210;2022-11-15T05:00:29;96139.00;;;14.70
18704;BMP180;9481;48.796;9.210;2022-11-15T05:02:56;96134.00;;;14.70
18704;BMP180;9481;48.796;9.210;2022-11-15T05:05:41;96130.00;;;14.70
18704;BMP180;9481;48.796;9.210;2022-11-15T05:08:07;96129.00;;;14.70
18704;BMP180;9481;48.796;9.210;2022-11-15T05:10:33;96131.00;;;14.70
18704;BMP180;9481;48.796;9.210;2022-11-15T05:12:58;96130.00;;;14.70
18704;BMP180;9481;48.796;9.210;2022-11-15T05:15:24;96123.00;;;14.70
18704;BMP180;9481;48.796;9.210;2022-11-15T05:17:50;96120.00;;;14.70
18704;BMP180;9481;48.796;9.210;2022-11-15T05:20:15;96121.00;;;14.70
18704;BMP180;9481;48.796;9.210;2022-11-15T05:22:41;96119.00;;;14.70
18704;BMP180;9481;48.796;9.210;2022-11-15T05:25:07;96117.00;;;14.60
18704;BMP180;9481;48.796;9.210;2022-11-15T05:27:34;96123.00;;;14.60
18704;BMP180;9481;48.796;9.210;2022-11-15T05:30:00;96126.00;;;14.60
18704;BMP180;9481;48.796;9.210;2022-11-15T05:32:26;96121.00;;;14.60
18704;BMP180;9481;48.796;9.210;2022-11-15T05:34:52;96118.00;;;14.60
18704;BMP180;9481;48.796;9.210;2022-11-15T05:37:19;96114.00;;;14.60
18704;BMP180;9481;48.796;9.210;2022-11-15T05:39:45;96116.00;;;14.60
18704;BMP180;9481;48.796;9.210;2022-11-15T05:42:14;96119.00;;;14.60
18704;BMP180;9481;48.796;9.210;2022-11-15T05:44:45;96122.00;;;14.60
18704;BMP180;9481;48.796;9.210;2022-11-15T05:47:25;96117.00;;;14.60
18704;BMP180;9481;48.796;9.210;2022-11-15T05:49:53;96099.00;;;14.70
18704;BMP180;9481;48.796;9.210;2022-11-15T05:52:25;96105.00;;;14.70
18704;BMP180;9481;48.796;9.210;2022-11-15T05:54:55;96106.00;;;14.70
18704;BMP180;9481;48.796;9.210;2022-11-15T05:57:22;96107.00;;;14.70
18704;BMP180;9481;48.796;9.210;2022-11-15T05:59:47;96109.00;;;14.70
18704;BMP180;9481;48.796;9.210;2022-11-15T06:02:13;96107.00;;;14.70
18704;BMP180;9481;48.796;9.210;2022-11-15T06:04:39;96114.00;;;14.70
18704;BMP180;9481;48.796;9.210;2022-11-15T06:07:04;96115.00;;;14.70
18704;BMP180;9481;48.796;9.210;2022-11-15T06:09:30;96106.00;;;14.70
18704;BMP180;9481;48.796;9.210;2022-11-15T06:11:55;96108.00;;;14.80
18704;BMP180;9481;48.796;9.210;2022-11-15T06:14:21;96105.00;;;14.80
18704;BMP180;9481;48.796;9.210;2022-11-15T06:16:47;96108.00;;;14.80
18704;BMP180;9481;48.796;9.210;2022-11-15T06:19:12;96110.00;;;14.80
18704;BMP180;9481;48.796;9.210;2022-11-15T06:21:38;96118.00;;;14.80
18704;BMP180;9481;48.796;9.210;2022-11-15T06:24:05;96119.00;;;14.80
18704;BMP180;9481;48.796;9.210;2022-11-15T06:26:31;96113.00;;;14.80
18704;BMP180;9481;48.796;9.210;2022-11-15T06:28:57;96107.00;;;14.80
18704;BMP180;9481;48.796;9.210;2022-11-15T06:31:23;96115.00;;;14.80
18704;BMP180;9481;48.796;9.210;2022-11-15T06:33:48;96121.00;;;14.70
18704;BMP180;9481;48.796;9.210;2022-11-15T06:36:15;96115.00;;;14.70
18704;BMP180;9481;48.796;9.210;2022-11-15T06:38:44;96114.00;;;14.70
18704;BMP180;9481;48.796;9.210;2022-11-15T06:41:12;96111.00;;;14.70
18704;BMP180;9481;48.796;9.210;2022-11-15T06:43:38;96119.00;;;14.70
18704;BMP180;9481;48.796;9.210;2022-11-15T06:46:05;96115.00;;;14.80
18704;BMP180;9481;48.796;9.210;2022-11-15T06:48:33;96117.00;;;14.80
18704;BMP180;9481;48.796;9.210;2022-11-15T06:51:01;96128.00;;;14.80
18704;BMP180;9481;48.796;9.210;2022-11-15T06:53:28;96125.00;;;14.80
18704;BMP180;9481;48.796;9.210;2022-11-15T06:56:03;96122.00;;;14.80
18704;BMP180;9481;48.796;9.210;2022-11-15T06:58:29;96131.00;;;14.80
18704;BMP180;9481;48.796;9.210;2022-11-15T07:01:01;96131.00;;;14.80
18704;BMP180;9481;48.796;9.210;2022-11-15T07:03:26;96130.00;;;14.90
18704;BMP180;9481;48.796;9.210;2022-11-15T07:05:57;96128.00;;;14.90
18704;BMP180;9481;48.796;9.210;2022-11-15T07:08:24;96130.00;;;14.90
18704;BMP180;9481;48.796;9.210;2022-11-15T07:10:51;96138.00;;;14.90
18704;BMP180;9481;48.796;9.210;2022-11-15T07:13:17;96141.00;;;14.90
18704;BMP180;9481;48.796;9.210;2022-11-15T07:15:43;96129.00;;;15.00
18704;BMP180;9481;48.796;9.210;2022-11-15T07:18:09;96127.00;;;15.00
18704;BMP180;9481;48.796;9.210;2022-11-15T07:20:35;96133.00;;;15.00
18704;BMP180;9481;48.796;9.210;2022-11-15T07:23:02;96136.00;;;15.00
18704;BMP180;9481;48.796;9.210;2022-11-15T07:25:28;96128.00;;;15.00
18704;BMP180;9481;48.796;9.210;2022-11-15T07:27:55;96124.00;;;15.10
18704;BMP180;9481;48.796;9.210;2022-11-15T07:30:22;96128.00;;;15.10
18704;BMP180;9481;48.796;9.210;2022-11-15T07:32:55;96132.00;;;15.10
18704;BMP180;9481;48.796;9.210;2022-11-15T07:35:21;96129.00;;;15.10
18704;BMP180;9481;48.796;9.210;2022-11-15T07:37:59;96126.00;;;15.10
18704;BMP180;9481;48.796;9.210;2022-11-15T07:40:27;96121.00;;;15.20
18704;BMP180;9481;48.796;9.210;2022-11-15T07:43:00;96120.00;;;15.20
18704;BMP180;9481;48.796;9.210;2022-11-15T07:45:26;96120.00;;;15.30
18704;BMP180;9481;48.796;9.210;2022-11-15T07:47:53;96114.00;;;15.30
18704;BMP180;9481;48.796;9.210;2022-11-15T07:50:19;96118.00;;;15.40
18704;BMP180;9481;48.796;9.210;2022-11-15T07:52:45;96109.00;;;15.40
18704;BMP180;9481;48.796;9.210;2022-11-15T07:55:11;96113.00;;;15.50
18704;BMP180;9481;48.796;9.210;2022-11-15T07:57:37;96111.00;;;15.60
18704;BMP180;9481;48.796;9.210;2022-11-15T08:00:05;96106.00;;;15.60
18704;BMP180;9481;48.796;9.210;2022-11-15T08:02:31;96106.00;;;15.70
18704;BMP180;9481;48.796;9.210;2022-11-15T08:04:57;96103.00;;;15.80
18704;BMP180;9481;48.796;9.210;2022-11-15T08:07:23;96100.00;;;15.80
18704;BMP180;9481;48.796;9.210;2022-11-15T08:09:48;96106.00;;;15.90
18704;BMP180;9481;48.796;9.210;2022-11-15T08:12:14;96109.00;;;15.90
18704;BMP180;9481;48.796;9.210;2022-11-15T08:14:40;96103.00;;;16.00
18704;BMP180;9481;48.796;9.210;2022-11-15T08:17:06;96103.00;;;16.00
18704;BMP180;9481;48.796;9.210;2022-11-15T08:19:31;96097.00;;;16.00
18704;BMP180;9481;48.796;9.210;2022-11-15T08:21:57;96095.00;;;16.00
18704;BMP180;9481;48.796;9.210;2022-11-15T08:24:23;96097.00;;;16.10
18704;BMP180;9481;48.796;9.210;2022-11-15T08:26:48;96084.00;;;16.10
18704;BMP180;9481;48.796;9.210;2022-11-15T08:29:14;96092.00;;;16.10
18704;BMP180;9481;48.796;9.210;2022-11-15T08:31:39;96095.00;;;16.10
18704;BMP180;9481;48.796;9.210;2022-11-15T08:34:06;96090.00;;;16.10
18704;BMP180;9481;48.796;9.210;2022-11-15T08:36:32;96086.00;;;16.20
18704;BMP180;9481;48.796;9.210;2022-11-15T08:38:58;96079.00;;;16.30
18704;BMP180;9481;48.796;9.210;2022-11-15T08:41:36;96076.00;;;16.30
18704;BMP180;9481;48.796;9.210;2022-11-15T08:44:02;96072.00;;;16.40
18704;BMP180;9481;48.796;9.210;2022-11-15T08:46:28;96071.00;;;16.50
18704;BMP180;9481;48.796;9.210;2022-11-15T08:48:54;96070.00;;;16.50
18704;BMP180;9481;48.796;9.210;2022-11-15T08:51:19;96067.00;;;16.50
18704;BMP180;9481;48.796;9.210;2022-11-15T08:53:45;96068.00;;;16.60
18704;BMP180;9481;48.796;9.210;2022-11-15T08:56:14;96063.00;;;16.70
18704;BMP180;9481;48.796;9.210;2022-11-15T08:58:40;96053.00;;;16.70
18704;BMP180;9481;48.796;9.210;2022-11-15T09:01:17;96057.00;;;16.80
18704;BMP180;9481;48.796;9.210;2022-11-15T09:03:43;96052.00;;;16.90
18704;BMP180;9481;48.796;9.210;2022-11-15T09:06:09;96054.00;;;16.90
18704;BMP180;9481;48.796;9.210;2022-11-15T09:08:34;96050.00;;;17.00
18704;BMP180;9481;48.796;9.210;2022-11-15T09:11:05;96056.00;;;17.00
18704;BMP180;9481;48.796;9.210;2022-11-15T09:13:32;96058.00;;;17.10
18704;BMP180;9481;48.796;9.210;2022-11-15T09:15:59;96064.00;;;17.10
18704;BMP180;9481;48.796;9.210;2022-11-15T09:18:26;96058.00;;;17.20
18704;BMP180;9481;48.796;9.210;2022-11-15T09:20:56;96054.00;;;17.20
18704;BMP180;9481;48.796;9.210;2022-11-15T09:23:23;96052.00;;;17.30
18704;BMP180;9481;48.796;9.210;2022-11-15T09:25:48;96044.00;;;17.40
18704;BMP180;9481;48.796;9.210;2022-11-15T09:28:14;96058.00;;;17.40
18704;BMP180;9481;48.796;9.210;2022-11-15T09:30:40;96058.00;;;17.50
18704;BMP180;9481;48.796;9.210;2022-11-15T09:33:12;96060.00;;;17.50
18704;BMP180;9481;48.796;9.210;2022-11-15T09:35:37;96055.00;;;17.60
18704;BMP180;9481;48.796;9.210;2022-11-15T09:38:04;96058.00;;;17.80
18704;BMP180;9481;48.796;9.210;2022-11-15T09:40:32;96052.00;;;18.10
18704;BMP180;9481;48.796;9.210;2022-11-15T09:46:13;96057.00;;;18.50
18704;BMP180;9481;48.796;9.210;2022-11-15T09:48:50;96053.00;;;18.70
18704;BMP180;9481;48.796;9.210;2022-11-15T09:51:40;96050.00;;;18.90
18704;BMP180;9481;48.796;9.210;2022-11-15T09:54:32;96037.00;;;19.10
18704;BMP180;9481;48.796;9.210;2022-11-15T09:57:20;96039.00;;;19.30
18704;BMP180;9481;48.796;9.210;2022-11-15T10:03:20;96035.00;;;19.50
18704;BMP180;9481;48.796;9.210;2022-11-15T10:05:48;96035.00;;;19.60
18704;BMP180;9481;48.796;9.210;2022-11-15T10:08:48;96036.00;;;19.50
18704;BMP180;9481;48.796;9.210;2022-11-15T10:11:23;96034.00;;;19.50
18704;BMP180;9481;48.796;9.210;2022-11-15T10:13:54;96031.00;;;19.50
18704;BMP180;9481;48.796;9.210;2022-11-15T10:16:57;96029.00;;;19.40
18704;BMP180;9481;48.796;9.210;2022-11-15T10:23:01;96027.00;;;19.20
18704;BMP180;9481;48.796;9.210;2022-11-15T10:25:34;96021.00;;;19.20
18704;BMP180;9481;48.796;9.210;2022-11-15T10:30:43;96013.00;;;19.10
18704;BMP180;9481;48.796;9.210;2022-11-15T10:33:42;96010.00;;;19.00
18704;BMP180;9481;48.796;9.210;2022-11-15T10:36:18;95997.00;;;19.00
18704;BMP180;9481;48.796;9.210;2022-11-15T10:41:31;95995.00;;;18.90
18704;BMP180;9481;48.796;9.210;2022-11-15T10:44:21;95992.00;;;18.90
18704;BMP180;9481;48.796;9.210;2022-11-15T10:47:20;95994.00;;;18.80
18704;BMP180;9481;48.796;9.210;2022-11-15T10:50:33;95992.00;;;18.80
18704;BMP180;9481;48.796;9.210;2022-11-15T10:53:01;95982.00;;;18.80
18704;BMP180;9481;48.796;9.210;2022-11-15T10:55:31;95984.00;;;18.80
18704;BMP180;9481;48.796;9.210;2022-11-15T10:58:05;95988.00;;;18.80
18704;BMP180;9481;48.796;9.210;2022-11-15T11:00:38;95990.00;;;18.80
18704;BMP180;9481;48.796;9.210;2022-11-15T11:03:42;95987.00;;;18.70
18704;BMP180;9481;48.796;9.210;2022-11-15T11:06:14;95978.00;;;18.70
18704;BMP180;9481;48.796;9.210;2022-11-15T11:09:04;95972.00;;;18.60
18704;BMP180;9481;48.796;9.210;2022-11-15T11:11:49;95982.00;;;18.60
18704;BMP180;9481;48.796;9.210;2022-11-15T11:14:25;95984.00;;;18.60
18704;BMP180;9481;48.796;9.210;2022-11-15T11:17:35;95979.00;;;18.50
18704;BMP180;9481;48.796;9.210;2022-11-15T11:20:20;95982.00;;;18.50
18704;BMP180;9481;48.796;9.210;2022-11-15T11:23:33;95975.00;;;18.40
18704;BMP180;9481;48.796;9.210;2022-11-15T11:26:32;95962.00;;;18.40
18704;BMP180;9481;48.796;9.210;2022-11-15T11:35:11;95960.00;;;18.40
18704;BMP180;9481;48.796;9.210;2022-11-15T11:37:55;95950.00;;;18.50
18704;BMP180;9481;48.796;9.210;2022-11-15T11:40:42;95951.00;;;18.50
18704;BMP180;9481;48.796;9.210;2022-11-15T11:46:12;95938.00;;;18.50
18704;BMP180;9481;48.796;9.210;2022-11-15T11:48:57;95933.00;;;18.50
18704;BMP180;9481;48.796;9.210;2022-11-15T11:51:34;95925.00;;;18.50
18704;BMP180;9481;48.796;9.210;2022-11-15T11:54:23;95933.00;;;18.60
18704;BMP180;9481;48.796;9.210;2022-11-15T11:56:51;95927.00;;;18.70
18704;BMP180;9481;48.796;9.210;2022-11-15T12:01:54;95921.00;;;18.80
18704;BMP180;9481;48.796;9.210;2022-11-15T12:04:35;95921.00;;;19.00
18704;BMP180;9481;48.796;9.210;2022-11-15T12:07:25;95922.00;;;19.30
18704;BMP180;9481;48.796;9.210;2022-11-15T12:10:03;95913.00;;;19.40
18704;BMP180;9481;48.796;9.210;2022-11-15T12:12:47;95917.00;;;19.50
18704;BMP180;9481;48.796;9.210;2022-11-15T12:15:48;95913.00;;;19.50
18704;BMP180;9481;48.796;9.210;2022-11-15T12:18:17;95908.00;;;19.50
18704;BMP180;9481;48.796;9.210;2022-11-15T12:21:06;95901.00;;;19.50
18704;BMP180;9481;48.796;9.210;2022-11-15T12:23:44;95892.00;;;19.40
18704;BMP180;9481;48.796;9.210;2022-11-15T12:26:22;95896.00;;;19.40
18704;BMP180;9481;48.796;9.210;2022-11-15T12:29:02;95897.00;;;19.30
18704;BMP180;9481;48.796;9.210;2022-11-15T12:31:42;95896.00;;;19.30
18704;BMP180;9481;48.796;9.210;2022-11-15T12:36:49;95897.00;;;19.20
18704;BMP180;9481;48.796;9.210;2022-11-15T12:39:17;95894.00;;;19.20
18704;BMP180;9481;48.796;9.210;2022-11-15T12:59:52;95878.00;;;18.90
18704;BMP180;9481;48.796;9.210;2022-11-15T13:02:24;95872.00;;;18.90
18704;BMP180;9481;48.796;9.210;2022-11-15T13:04:54;95876.00;;;18.90
18704;BMP180;9481;48.796;9.210;2022-11-15T13:13:42;95862.00;;;18.80
18704;BMP180;9481;48.796;9.210;2022-11-15T13:16:08;95859.00;;;18.80
18704;BMP180;9481;48.796;9.210;2022-11-15T13:18:39;95855.00;;;18.80
18704;BMP180;9481;48.796;9.210;2022-11-15T13:21:23;95847.00;;;18.80
18704;BMP180;9481;48.796;9.210;2022-11-15T13:24:13;95844.00;;;18.80
18704;BMP180;9481;48.796;9.210;2022-11-15T13:26:41;95844.00;;;18.80
18704;BMP180;9481;48.796;9.210;2022-11-15T13:29:16;95839.00;;;18.70
18704;BMP180;9481;48.796;9.210;2022-11-15T13:31:44;95836.00;;;18.80
18704;BMP180;9481;48.796;9.210;2022-11-15T13:34:32;95832.00;;;18.70
18704;BMP180;9481;48.796;9.210;2022-11-15T13:37:02;95840.00;;;18.70
18704;BMP180;9481;48.796;9.210;2022-11-15T13:39:33;95829.00;;;18.70
18704;BMP180;9481;48.796;9.210;2022-11-15T13:42:00;95822.00;;;18.70
18704;BMP180;9481;48.796;9.210;2022-11-15T13:44:33;95817.00;;;18.70
18704;BMP180;9481;48.796;9.210;2022-11-15T13:47:15;95814.00;;;18.70
18704;BMP180;9481;48.796;9.210;2022-11-15T13:49:42;95815.00;;;18.70
18704;BMP180;9481;48.796;9.210;2022-11-15T13:52:12;95805.00;;;18.70
18704;BMP180;9481;48.796;9.210;2022-11-15T13:55:00;95799.00;;;18.60
18704;BMP180;9481;48.796;9.210;2022-11-15T13:57:48;95807.00;;;18.60
18704;BMP180;9481;48.796;9.210;2022-11-15T14:03:19;95795.00;;;18.50
18704;BMP180;9481;48.796;9.210;2022-11-15T14:06:14;95793.00;;;18.50
18704;BMP180;9481;48.796;9.210;2022-11-15T14:11:37;95783.00;;;18.50
18704;BMP180;9481;48.796;9.210;2022-11-15T14:14:14;95780.00;;;18.50
18704;BMP180;9481;48.796;9.210;2022-11-15T14:16:45;95778.00;;;18.50
18704;BMP180;9481;48.796;9.210;2022-11-15T14:24:45;95772.00;;;18.40
18704;BMP180;9481;48.796;9.210;2022-11-15T14:27:22;95757.00;;;18.40
18704;BMP180;9481;48.796;9.210;2022-11-15T14:29:48;95757.00;;;18.40
18704;BMP180;9481;48.796;9.210;2022-11-15T14:32:24;95753.00;;;18.40
18704;BMP180;9481;48.796;9.210;2022-11-15T14:34:59;95745.00;;;18.40
18704;BMP180;9481;48.796;9.210;2022-11-15T14:37:33;95748.00;;;18.40
18704;BMP180;9481;48.796;9.210;2022-11-15T14:40:02;95739.00;;;18.40
18704;BMP180;9481;48.796;9.210;2022-11-15T14:42:28;95737.00;;;18.40
18704;BMP180;9481;48.796;9.210;2022-11-15T14:44:54;95736.00;;;18.40
18704;BMP180;9481;48.796;9.210;2022-11-15T14:47:20;95730.00;;;18.40
18704;BMP180;9481;48.796;9.210;2022-11-15T14:49:46;95739.00;;;18.40
18704;BMP180;9481;48.796;9.210;2022-11-15T14:52:27;95733.00;;;18.30
18704;BMP180;9481;48.796;9.210;2022-11-15T14:54:55;95739.00;;;18.30
18704;BMP180;9481;48.796;9.210;2022-11-15T14:57:21;95723.00;;;18.30
18704;BMP180;9481;48.796;9.210;2022-11-15T14:59:47;95723.00;;;18.30
18704;BMP180;9481;48.796;9.210;2022-11-15T15:02:20;95720.00;;;18.30
18704;BMP180;9481;48.796;9.210;2022-11-15T15:04:47;95716.00;;;18.30
18704;BMP180;9481;48.796;9.210;2022-11-15T15:07:13;95726.00;;;18.30
18704;BMP180;9481;48.796;9.210;2022-11-15T15:09:39;95717.00;;;18.30
18704;BMP180;9481;48.796;9.210;2022-11-15T15:12:17;95711.00;;;18.30
18704;BMP180;9481;48.796;9.210;2022-11-15T15:14:43;95725.00;;;18.30
18704;BMP180;9481;48.796;9.210;2022-11-15T15:17:09;95699.00;;;18.20
18704;BMP180;9481;48.796;9.210;2022-11-15T15:19:35;95699.00;;;18.20
18704;BMP180;9481;48.796;9.210;2022-11-15T15:22:01;95703.00;;;18.20
18704;BMP180;9481;48.796;9.210;2022-11-15T15:24:26;95697.00;;;18.20
18704;BMP180;9481;48.796;9.210;2022-11-15T15:26:52;95686.00;;;18.20
18704;BMP180;9481;48.796;9.210;2022-11-15T15:29:18;95682.00;;;18.10
18704;BMP180;9481;48.796;9.210;2022-11-15T15:31:43;95684.00;;;18.10
18704;BMP180;9481;48.796;9.210;2022-11-15T15:34:09;95678.00;;;18.10
18704;BMP180;9481;48.796;9.210;2022-11-15T15:36:34;95676.00;;;18.10
18704;BMP180;9481;48.796;9.210;2022-11-15T15:39:00;95674.00;;;18.10
18704;BMP180;9481;48.796;9.210;2022-11-15T15:41:26;95667.00;;;18.10
18704;BMP180;9481;48.796;9.210;2022-11-15T15:43:51;95671.00;;;18.10
18704;BMP180;9481;48.796;9.210;2022-11-15T15:46:19;95669.00;;;18.10
18704;BMP180;9481;48.796;9.210;2022-11-15T15:48:46;95667.00;;;18.10
18704;BMP180;9481;48.796;9.210;2022-11-15T15:51:11;95656.00;;;18.10
18704;BMP180;9481;48.796;9.210;2022-11-15T15:53:37;95658.00;;;18.00
18704;BMP180;9481;48.796;9.210;2022-11-15T15:56:04;95667.00;;;18.10
18704;BMP180;9481;48.796;9.210;2022-11-15T15:58:30;95656.00;;;18.00
18704;BMP180;9481;48.796;9.210;2022-11-15T16:00:57;95650.00;;;18.00
18704;BMP180;9481;48.796;9.210;2022-11-15T16:03:23;95647.00;;;18.00
18704;BMP180;9481;48.796;9.210;2022-11-15T16:05:50;95642.00;;;18.00
18704;BMP180;9481;48.796;9.210;2022-11-15T16:08:23;95646.00;;;18.00
18704;BMP180;9481;48.796;9.210;2022-11-15T16:10:49;95648.00;;;18.00
18704;BMP180;9481;48.796;9.210;2022-11-15T16:13:15;95646.00;;;18.00
18704;BMP180;9481;48.796;9.210;2022-11-15T16:15:42;95629.00;;;18.00